Time;durP1;ratioP1;P1;durP2;ratioP2;P2;SDS_P1;SDS_P2;PMS_P1;PMS_P2;Temp;Humidity;BMP_temperature;BMP_pressure;BME280_temperature;BME280_humidity;BME280_pressure;Samples;Min_cycle;Max_cycle;Signal;HPM_P1;HPM_P2
2022/11/01 00:01:59;;;;;;;17.87;11.23;;;;;;;;;;4983789;28;20318;-63
2022/11/01 00:04:26;;;;;;;15.73;10.90;;;;;;;;;;4975535;28;20661;-63
2022/11/01 00:06:54;;;;;;;17.30;10.73;;;;;;;;;;4975931;28;20195;-63
2022/11/01 00:09:22;;;;;;;15.60;10.90;;;;;;;;;;4980753;28;20310;-64
2022/11/01 00:11:50;;;;;;;17.33;11.30;;;;;;;;;;4985377;28;20299;-65
2022/11/01 00:14:18;;;;;;;16.80;11.43;;;;;;;;;;4977524;28;20703;-63
2022/11/01 00:16:46;;;;;;;19.17;10.67;;;;;;;;;;4976004;28;20247;-63
2022/11/01 00:19:14;;;;;;;18.93;11.63;;;;;;;;;;4968681;28;20231;-64
2022/11/01 00:21:41;;;;;;;21.23;13.13;;;;;;;;;;4974227;28;20628;-64
2022/11/01 00:24:08;;;;;;;17.57;10.27;;;;;;;;;;4981900;28;20908;-62
2022/11/01 00:26:36;;;;;;;14.77;10.40;;;;;;;;;;4998714;28;20688;-64
2022/11/01 00:29:03;;;;;;;16.63;10.80;;;;;;;;;;4990353;28;20714;-63
2022/11/01 00:31:31;;;;;;;14.63;9.63;;;;;;;;;;4976771;28;20203;-65
2022/11/01 00:34:02;;;;;;;16.10;10.53;;;;;;;;;;4980044;28;20302;-63
2022/11/01 00:36:31;;;;;;;14.27;10.13;;;;;;;;;;4980524;28;20215;-64
2022/11/01 00:38:59;;;;;;;14.60;10.13;;;;;;;;;;4993149;28;20214;-63
2022/11/01 00:41:26;;;;;;;21.40;14.07;;;;;;;;;;4982192;28;20689;-63
2022/11/01 00:43:53;;;;;;;18.00;12.70;;;;;;;;;;4976822;28;20302;-63
2022/11/01 00:46:21;;;;;;;21.23;12.03;;;;;;;;;;4974693;28;20243;-62
2022/11/01 00:48:49;;;;;;;23.40;12.10;;;;;;;;;;4969091;28;20222;-63
2022/11/01 00:51:16;;;;;;;18.93;11.17;;;;;;;;;;4982952;28;20947;-63
2022/11/01 00:53:43;;;;;;;13.67;10.40;;;;;;;;;;4978332;28;20230;-63
2022/11/01 00:56:11;;;;;;;15.30;10.07;;;;;;;;;;4997606;28;20235;-63
2022/11/01 00:58:38;;;;;;;15.90;10.60;;;;;;;;;;4971679;28;20520;-63
2022/11/01 01:01:05;;;;;;;17.77;10.63;;;;;;;;;;4974565;28;20550;-62
2022/11/01 01:03:33;;;;;;;15.73;10.57;;;;;;;;;;4974720;28;20671;-63
2022/11/01 01:06:01;;;;;;;13.23;9.70;;;;;;;;;;4978719;28;20290;-63
2022/11/01 01:08:28;;;;;;;14.77;9.50;;;;;;;;;;4979823;28;20207;-63
2022/11/01 01:10:55;;;;;;;13.33;9.27;;;;;;;;;;4979739;28;20233;-63
2022/11/01 01:13:23;;;;;;;15.17;10.20;;;;;;;;;;4984437;28;20213;-63
2022/11/01 01:15:50;;;;;;;15.10;10.70;;;;;;;;;;4977554;28;20207;-64
2022/11/01 01:18:17;;;;;;;12.93;9.37;;;;;;;;;;4978455;28;20217;-63
2022/11/01 01:20:45;;;;;;;13.47;8.73;;;;;;;;;;4977731;28;20231;-63
2022/11/01 01:23:12;;;;;;;15.03;9.03;;;;;;;;;;4992770;28;20204;-64
2022/11/01 01:25:41;;;;;;;15.60;8.87;;;;;;;;;;4977309;28;20570;-64
2022/11/01 01:28:08;;;;;;;14.30;9.27;;;;;;;;;;4999795;28;20207;-64
2022/11/01 01:30:38;;;;;;;13.60;8.63;;;;;;;;;;4971799;28;20277;-64
2022/11/01 01:33:06;;;;;;;15.73;9.30;;;;;;;;;;4981000;28;20285;-64
2022/11/01 01:35:33;;;;;;;12.67;8.50;;;;;;;;;;4986491;28;20204;-63
2022/11/01 01:38:01;;;;;;;11.80;7.60;;;;;;;;;;4972882;28;20215;-63
2022/11/01 01:40:29;;;;;;;13.43;8.80;;;;;;;;;;4976174;28;20250;-63
2022/11/01 01:42:56;;;;;;;12.93;8.87;;;;;;;;;;4972736;28;20302;-63
2022/11/01 01:45:27;;;;;;;15.37;9.07;;;;;;;;;;4971380;28;20220;-63
2022/11/01 01:47:57;;;;;;;13.53;9.20;;;;;;;;;;4972774;28;20682;-63
2022/11/01 01:50:26;;;;;;;12.70;8.07;;;;;;;;;;5003045;28;20239;-63
2022/11/01 01:53:02;;;;;;;12.10;8.87;;;;;;;;;;4975926;28;20302;-64
2022/11/01 01:55:33;;;;;;;13.17;8.23;;;;;;;;;;4969549;28;20222;-64
2022/11/01 01:58:01;;;;;;;10.13;6.93;;;;;;;;;;4994904;28;21148;-64
2022/11/01 02:00:28;;;;;;;11.63;6.90;;;;;;;;;;4979738;28;20297;-63
2022/11/01 02:02:55;;;;;;;7.53;5.70;;;;;;;;;;4981660;28;20281;-62
2022/11/01 02:05:32;;;;;;;10.80;5.47;;;;;;;;;;4977195;28;20241;-63
2022/11/01 02:08:00;;;;;;;8.37;5.13;;;;;;;;;;4972070;28;20223;-64
2022/11/01 02:10:29;;;;;;;8.30;5.00;;;;;;;;;;4977472;28;20242;-63
2022/11/01 02:12:57;;;;;;;10.17;5.40;;;;;;;;;;4970418;28;20207;-63
2022/11/01 02:15:28;;;;;;;10.83;5.57;;;;;;;;;;4960746;28;20211;-64
2022/11/01 02:18:09;;;;;;;7.97;5.73;;;;;;;;;;4975214;28;20207;-64
2022/11/01 02:20:39;;;;;;;9.60;6.80;;;;;;;;;;4979999;28;21327;-63
2022/11/01 02:23:25;;;;;;;9.33;6.77;;;;;;;;;;4975628;28;20672;-65
2022/11/01 02:26:08;;;;;;;11.30;6.80;;;;;;;;;;4971541;28;20203;-64
2022/11/01 02:28:50;;;;;;;10.90;6.70;;;;;;;;;;4968464;28;23104;-63
2022/11/01 02:31:50;;;;;;;10.60;6.17;;;;;;;;;;4974331;28;20218;-63
2022/11/01 02:34:40;;;;;;;8.23;5.27;;;;;;;;;;4944608;28;20226;-64
2022/11/01 02:37:14;;;;;;;12.73;6.07;;;;;;;;;;4982840;28;20748;-63
2022/11/01 02:39:46;;;;;;;9.17;6.10;;;;;;;;;;4992779;28;20241;-63
2022/11/01 02:42:18;;;;;;;9.50;5.97;;;;;;;;;;4973803;28;20654;-63
2022/11/01 02:44:51;;;;;;;10.13;6.27;;;;;;;;;;4972183;28;20298;-63
2022/11/01 02:47:19;;;;;;;8.47;5.67;;;;;;;;;;4958888;28;20208;-63
2022/11/01 02:49:47;;;;;;;9.60;5.93;;;;;;;;;;4982232;28;20350;-63
2022/11/01 02:52:16;;;;;;;10.70;5.50;;;;;;;;;;4962416;28;20218;-61
2022/11/01 02:54:45;;;;;;;9.37;5.67;;;;;;;;;;4972455;28;20199;-64
2022/11/01 02:57:33;;;;;;;8.83;6.07;;;;;;;;;;4969417;28;20308;-64
2022/11/01 03:00:16;;;;;;;12.63;6.47;;;;;;;;;;4977280;28;20247;-64
2022/11/01 03:02:44;;;;;;;11.17;6.00;;;;;;;;;;4987683;28;20238;-65
2022/11/01 03:05:18;;;;;;;10.57;6.20;;;;;;;;;;4975913;28;20257;-64
2022/11/01 03:07:47;;;;;;;9.77;5.67;;;;;;;;;;4980213;28;20226;-64
2022/11/01 03:10:15;;;;;;;7.80;5.47;;;;;;;;;;4975371;28;20225;-62
2022/11/01 03:13:03;;;;;;;8.53;5.13;;;;;;;;;;4971861;28;20246;-64
2022/11/01 03:15:38;;;;;;;8.63;5.17;;;;;;;;;;4973439;28;20594;-63
2022/11/01 03:18:20;;;;;;;8.60;4.97;;;;;;;;;;4968488;28;20234;-63
2022/11/01 03:20:55;;;;;;;9.90;5.40;;;;;;;;;;4993739;28;20235;-63
2022/11/01 03:23:28;;;;;;;8.07;5.63;;;;;;;;;;4974367;28;20219;-63
2022/11/01 03:26:00;;;;;;;8.17;6.40;;;;;;;;;;4974806;28;20215;-64
2022/11/01 03:28:30;;;;;;;9.80;5.87;;;;;;;;;;4970391;28;20223;-63
2022/11/01 03:31:16;;;;;;;8.47;5.20;;;;;;;;;;4970780;28;20250;-63
2022/11/01 03:33:56;;;;;;;10.10;4.97;;;;;;;;;;4975429;28;20211;-64
2022/11/01 03:36:25;;;;;;;9.77;4.60;;;;;;;;;;4970269;28;20219;-63
2022/11/01 03:38:57;;;;;;;9.80;4.90;;;;;;;;;;4974834;28;20235;-62
2022/11/01 03:41:26;;;;;;;9.40;5.10;;;;;;;;;;4978749;28;20242;-63
2022/11/01 03:43:53;;;;;;;10.37;4.30;;;;;;;;;;4981359;28;20303;-63
2022/11/01 03:46:21;;;;;;;8.07;4.60;;;;;;;;;;4979618;28;20310;-63
2022/11/01 03:48:48;;;;;;;8.63;3.97;;;;;;;;;;4982855;28;20276;-64
2022/11/01 03:51:16;;;;;;;6.17;3.40;;;;;;;;;;4979096;28;20314;-63
2022/11/01 03:53:43;;;;;;;6.03;3.90;;;;;;;;;;4979082;28;20723;-64
2022/11/01 03:56:11;;;;;;;8.73;4.00;;;;;;;;;;5001863;28;20243;-64
2022/11/01 03:58:41;;;;;;;8.67;3.67;;;;;;;;;;4982433;28;20278;-64
2022/11/01 04:01:09;;;;;;;7.80;4.47;;;;;;;;;;4979912;28;20701;-64
2022/11/01 04:03:36;;;;;;;6.30;3.83;;;;;;;;;;5005488;28;20457;-63
2022/11/01 04:06:04;;;;;;;5.33;3.03;;;;;;;;;;4982348;28;20302;-63
2022/11/01 04:08:31;;;;;;;5.83;3.40;;;;;;;;;;4976649;28;20239;-63
2022/11/01 04:11:00;;;;;;;9.67;3.70;;;;;;;;;;4960058;28;20322;-64
2022/11/01 04:13:27;;;;;;;10.83;3.33;;;;;;;;;;5001737;28;20544;-63
2022/11/01 04:21:26;;;;;;;5.57;3.00;;;;;;;;;;5001452;28;20647;-63
2022/11/01 04:23:53;;;;;;;5.43;3.40;;;;;;;;;;4979297;28;20200;-62
2022/11/01 04:26:22;;;;;;;7.57;3.53;;;;;;;;;;4980185;28;20199;-63
2022/11/01 04:28:56;;;;;;;9.00;3.30;;;;;;;;;;5000764;28;20335;-63
2022/11/01 04:31:27;;;;;;;8.87;3.60;;;;;;;;;;4980189;28;20212;-63
2022/11/01 04:33:54;;;;;;;8.37;3.97;;;;;;;;;;4985835;28;20302;-63
2022/11/01 04:36:22;;;;;;;8.83;3.23;;;;;;;;;;4974018;28;20697;-63
2022/11/01 04:38:56;;;;;;;6.67;3.03;;;;;;;;;;5001602;28;20231;-63
2022/11/01 04:41:24;;;;;;;5.90;3.50;;;;;;;;;;4977574;28;20231;-64
2022/11/01 04:43:53;;;;;;;8.50;3.30;;;;;;;;;;4971483;28;20203;-63
2022/11/01 04:46:21;;;;;;;9.07;3.67;;;;;;;;;;4980355;28;20254;-63
2022/11/01 04:48:48;;;;;;;9.13;3.63;;;;;;;;;;4982533;28;20757;-64
2022/11/01 04:51:15;;;;;;;7.83;3.53;;;;;;;;;;4975620;28;20684;-63
2022/11/01 04:53:43;;;;;;;5.40;2.97;;;;;;;;;;4977455;28;20294;-63
2022/11/01 04:56:12;;;;;;;10.00;3.30;;;;;;;;;;4983580;28;20341;-63
2022/11/01 04:58:39;;;;;;;9.40;3.63;;;;;;;;;;4988201;28;20222;-63
2022/11/01 05:01:13;;;;;;;10.07;3.67;;;;;;;;;;4986090;28;20231;-64
2022/11/01 05:03:41;;;;;;;10.63;3.47;;;;;;;;;;4983591;28;20318;-63
2022/11/01 05:06:08;;;;;;;6.30;3.60;;;;;;;;;;4986080;28;20765;-63
2022/11/01 05:08:35;;;;;;;9.33;3.77;;;;;;;;;;4982543;28;20207;-64
2022/11/01 05:11:06;;;;;;;6.80;3.80;;;;;;;;;;5001068;28;21558;-64
2022/11/01 05:13:33;;;;;;;8.73;3.40;;;;;;;;;;4976838;28;20212;-64
2022/11/01 05:16:04;;;;;;;5.93;3.27;;;;;;;;;;4983745;28;20295;-64
2022/11/01 05:18:45;;;;;;;7.17;3.80;;;;;;;;;;4981863;28;20224;-61
2022/11/01 05:21:12;;;;;;;8.50;3.00;;;;;;;;;;4979562;28;20298;-63
2022/11/01 05:23:40;;;;;;;9.77;3.70;;;;;;;;;;4975688;28;20226;-63
2022/11/01 05:26:07;;;;;;;7.10;2.70;;;;;;;;;;4976838;28;20270;-63
2022/11/01 05:28:34;;;;;;;5.77;2.43;;;;;;;;;;4974988;28;20254;-61
2022/11/01 05:31:02;;;;;;;5.23;2.30;;;;;;;;;;4979753;28;20329;-63
2022/11/01 05:33:29;;;;;;;3.67;1.93;;;;;;;;;;4984293;28;20290;-63
2022/11/01 05:35:59;;;;;;;4.57;2.00;;;;;;;;;;4994770;28;20216;-64
2022/11/01 05:38:27;;;;;;;3.80;2.17;;;;;;;;;;4983389;28;20254;-64
2022/11/01 05:40:54;;;;;;;3.07;1.60;;;;;;;;;;4995727;28;20275;-63
2022/11/01 05:43:21;;;;;;;4.23;2.03;;;;;;;;;;4979471;28;20231;-64
2022/11/01 05:45:50;;;;;;;3.43;1.60;;;;;;;;;;4973122;28;20307;-63
2022/11/01 05:48:17;;;;;;;5.70;1.83;;;;;;;;;;4974586;28;21251;-63
2022/11/01 05:50:45;;;;;;;2.57;1.93;;;;;;;;;;4980052;28;20322;-63
2022/11/01 05:53:13;;;;;;;3.08;2.05;;;;;;;;;;4995541;28;20211;-63
2022/11/01 05:55:40;;;;;;;3.27;1.67;;;;;;;;;;4977189;28;20329;-63
2022/11/01 05:58:08;;;;;;;4.13;2.00;;;;;;;;;;4973734;28;20685;-64
2022/11/01 06:00:35;;;;;;;1.63;1.40;;;;;;;;;;4974016;28;20274;-63
2022/11/01 06:03:03;;;;;;;3.97;1.50;;;;;;;;;;4977083;28;20231;-63
2022/11/01 06:05:31;;;;;;;3.53;1.47;;;;;;;;;;4978913;28;20196;-63
2022/11/01 06:08:03;;;;;;;2.33;1.60;;;;;;;;;;4974104;28;20199;-62
2022/11/01 06:10:30;;;;;;;2.10;1.60;;;;;;;;;;4975976;28;20227;-63
2022/11/01 06:12:58;;;;;;;3.03;1.63;;;;;;;;;;4972554;28;21624;-64
2022/11/01 06:15:26;;;;;;;5.90;1.63;;;;;;;;;;4972268;28;20203;-63
2022/11/01 06:17:57;;;;;;;3.73;1.70;;;;;;;;;;4987945;28;20212;-63
2022/11/01 06:20:25;;;;;;;3.70;1.30;;;;;;;;;;4984154;28;20262;-64
2022/11/01 06:22:53;;;;;;;1.73;1.40;;;;;;;;;;4970128;28;21369;-62
2022/11/01 06:25:20;;;;;;;3.37;1.60;;;;;;;;;;4976932;28;20227;-63
2022/11/01 06:27:48;;;;;;;2.47;1.30;;;;;;;;;;4974790;28;20294;-63
2022/11/01 06:30:18;;;;;;;1.37;1.20;;;;;;;;;;4977300;28;20310;-64
2022/11/01 06:32:45;;;;;;;1.63;1.07;;;;;;;;;;4977481;28;20330;-64
2022/11/01 06:35:13;;;;;;;4.30;1.20;;;;;;;;;;4977966;28;20204;-63
2022/11/01 06:37:40;;;;;;;2.20;1.40;;;;;;;;;;4994018;28;20303;-64
2022/11/01 06:40:13;;;;;;;1.33;1.13;;;;;;;;;;4976880;28;20357;-64
2022/11/01 06:42:41;;;;;;;2.37;1.20;;;;;;;;;;4984212;28;20241;-64
2022/11/01 06:45:13;;;;;;;1.30;1.00;;;;;;;;;;4993465;28;20216;-61
2022/11/01 06:47:45;;;;;;;1.00;1.00;;;;;;;;;;4972154;28;20218;-64
2022/11/01 06:50:12;;;;;;;1.73;0.90;;;;;;;;;;4976724;28;23567;-63
2022/11/01 06:52:39;;;;;;;1.00;0.90;;;;;;;;;;4976140;28;20290;-64
2022/11/01 06:55:12;;;;;;;2.33;1.00;;;;;;;;;;4980559;28;20239;-63
2022/11/01 06:57:40;;;;;;;2.00;1.00;;;;;;;;;;4998481;28;20589;-62
2022/11/01 07:00:10;;;;;;;2.37;1.20;;;;;;;;;;4996244;28;20234;-62
2022/11/01 07:02:38;;;;;;;0.90;0.90;;;;;;;;;;4964121;28;20219;-63
2022/11/01 07:05:07;;;;;;;1.90;1.03;;;;;;;;;;4976016;28;20231;-63
2022/11/01 07:07:34;;;;;;;2.07;0.80;;;;;;;;;;4978332;28;20211;-63
2022/11/01 07:10:01;;;;;;;0.97;0.90;;;;;;;;;;4972427;28;20236;-63
2022/11/01 07:12:28;;;;;;;1.85;1.10;;;;;;;;;;4968601;28;20212;-63
2022/11/01 07:14:56;;;;;;;1.80;1.30;;;;;;;;;;4981519;28;20307;-63
2022/11/01 07:17:23;;;;;;;2.63;1.30;;;;;;;;;;4978624;28;21028;-63
2022/11/01 07:19:50;;;;;;;3.58;1.48;;;;;;;;;;5004989;28;20257;-61
2022/11/01 07:22:18;;;;;;;3.25;1.70;;;;;;;;;;4978806;28;20219;-63
2022/11/01 07:24:45;;;;;;;3.85;1.77;;;;;;;;;;4975388;28;20203;-63
2022/11/01 07:27:12;;;;;;;3.45;1.50;;;;;;;;;;4981359;28;20335;-63
2022/11/01 07:29:46;;;;;;;2.38;1.65;;;;;;;;;;4996538;28;20236;-64
2022/11/01 07:32:14;;;;;;;1.48;1.27;;;;;;;;;;4981158;28;20302;-63
2022/11/01 07:34:41;;;;;;;2.38;1.40;;;;;;;;;;4980446;28;20716;-63
2022/11/01 07:37:08;;;;;;;3.63;1.48;;;;;;;;;;4973240;28;20213;-64
2022/11/01 07:39:36;;;;;;;3.30;1.48;;;;;;;;;;4975439;28;20224;-64
2022/11/01 07:42:03;;;;;;;3.08;1.52;;;;;;;;;;4974653;28;20231;-62
2022/11/01 07:44:30;;;;;;;2.42;1.50;;;;;;;;;;4976928;28;20294;-63
2022/11/01 07:46:58;;;;;;;1.70;1.52;;;;;;;;;;4997437;28;20219;-63
2022/11/01 07:49:25;;;;;;;3.40;1.50;;;;;;;;;;4993327;28;20218;-63
2022/11/01 07:51:52;;;;;;;1.38;1.25;;;;;;;;;;4976125;28;20204;-63
2022/11/01 07:54:23;;;;;;;2.58;1.60;;;;;;;;;;4970598;28;20222;-64
2022/11/01 07:56:50;;;;;;;2.47;1.90;;;;;;;;;;4974708;28;21628;-62
2022/11/01 07:59:17;;;;;;;3.20;1.90;;;;;;;;;;4974278;28;20227;-63
2022/11/01 08:01:45;;;;;;;2.47;1.60;;;;;;;;;;4976951;28;20206;-63
2022/11/01 08:04:13;;;;;;;2.55;1.55;;;;;;;;;;4992157;28;20203;-62
2022/11/01 08:06:40;;;;;;;3.47;1.83;;;;;;;;;;4980914;28;20234;-63
2022/11/01 08:09:08;;;;;;;2.33;1.88;;;;;;;;;;4985632;28;20744;-63
2022/11/01 08:11:35;;;;;;;3.20;2.13;;;;;;;;;;4972103;28;20200;-63
2022/11/01 08:14:02;;;;;;;2.25;2.08;;;;;;;;;;4973803;28;20219;-63
2022/11/01 08:16:33;;;;;;;4.75;2.03;;;;;;;;;;4971599;28;20232;-63
2022/11/01 08:19:00;;;;;;;3.28;2.28;;;;;;;;;;4972108;28;20330;-63
2022/11/01 08:21:27;;;;;;;4.25;2.08;;;;;;;;;;4979893;28;20302;-64
2022/11/01 08:23:55;;;;;;;3.72;2.05;;;;;;;;;;4967847;28;20224;-62
2022/11/01 08:26:22;;;;;;;3.83;1.80;;;;;;;;;;4991345;28;20306;-63
2022/11/01 08:28:50;;;;;;;3.83;1.70;;;;;;;;;;4968658;28;20207;-63
2022/11/01 08:31:17;;;;;;;4.85;2.10;;;;;;;;;;4975094;28;20575;-63
2022/11/01 08:33:44;;;;;;;4.13;1.98;;;;;;;;;;4973748;28;20298;-64
2022/11/01 08:36:12;;;;;;;7.90;2.60;;;;;;;;;;4967120;28;20220;-63
2022/11/01 08:38:39;;;;;;;5.13;3.08;;;;;;;;;;4965382;28;20219;-64
2022/11/01 08:41:06;;;;;;;4.78;2.90;;;;;;;;;;4971322;28;20207;-64
2022/11/01 08:43:34;;;;;;;4.07;2.92;;;;;;;;;;4967254;28;20233;-62
2022/11/01 08:46:08;;;;;;;6.85;3.35;;;;;;;;;;4968677;28;20226;-64
2022/11/01 08:48:36;;;;;;;3.33;2.85;;;;;;;;;;4966019;28;20311;-62
2022/11/01 08:51:04;;;;;;;5.78;3.63;;;;;;;;;;4979809;28;20235;-64
2022/11/01 08:53:31;;;;;;;5.88;3.80;;;;;;;;;;4970549;28;20214;-63
2022/11/01 08:56:01;;;;;;;7.15;4.20;;;;;;;;;;4968454;28;20212;-63
2022/11/01 08:58:29;;;;;;;5.60;3.60;;;;;;;;;;4972161;28;20211;-63
2022/11/01 09:00:56;;;;;;;7.30;4.38;;;;;;;;;;4990148;28;20645;-63
2022/11/01 09:03:24;;;;;;;5.72;4.10;;;;;;;;;;4960649;28;20258;-63
2022/11/01 09:05:51;;;;;;;7.90;4.82;;;;;;;;;;4960250;28;20216;-64
2022/11/01 09:08:18;;;;;;;5.03;4.07;;;;;;;;;;4968046;28;21302;-62
2022/11/01 09:10:46;;;;;;;6.68;4.43;;;;;;;;;;4971998;28;20241;-62
2022/11/01 09:13:13;;;;;;;6.43;4.40;;;;;;;;;;4971465;28;20282;-63
2022/11/01 09:15:40;;;;;;;7.25;4.40;;;;;;;;;;4972775;28;20208;-63
2022/11/01 09:18:08;;;;;;;7.30;4.35;;;;;;;;;;4967497;28;20311;-63
2022/11/01 09:20:35;;;;;;;5.38;4.15;;;;;;;;;;4971806;28;20820;-62
2022/11/01 09:23:02;;;;;;;6.38;4.40;;;;;;;;;;4977684;28;20223;-64
2022/11/01 09:25:31;;;;;;;4.95;4.20;;;;;;;;;;4972586;28;20720;-63
2022/11/01 09:27:58;;;;;;;6.15;4.57;;;;;;;;;;4984710;28;20272;-61
2022/11/01 09:30:26;;;;;;;7.03;4.70;;;;;;;;;;4975117;28;20230;-64
2022/11/01 09:32:53;;;;;;;6.85;4.35;;;;;;;;;;4980062;28;20661;-64
2022/11/01 09:35:21;;;;;;;5.18;4.50;;;;;;;;;;4985596;28;20333;-63
2022/11/01 09:37:48;;;;;;;6.65;4.28;;;;;;;;;;4978382;28;20306;-63
2022/11/01 09:40:15;;;;;;;5.32;3.95;;;;;;;;;;4983708;28;20251;-63
2022/11/01 09:42:43;;;;;;;6.05;4.00;;;;;;;;;;4981735;28;20227;-64
2022/11/01 09:45:30;;;;;;;5.22;3.45;;;;;;;;;;4991122;28;20234;-63
2022/11/01 09:48:00;;;;;;;7.75;3.90;;;;;;;;;;4973774;28;20251;-63
2022/11/01 09:50:33;;;;;;;7.25;3.80;;;;;;;;;;4973630;28;22297;-63
2022/11/01 09:53:02;;;;;;;5.10;3.70;;;;;;;;;;4997111;28;20207;-64
2022/11/01 09:55:40;;;;;;;4.40;3.63;;;;;;;;;;4985003;28;20689;-63
2022/11/01 09:58:20;;;;;;;6.75;3.55;;;;;;;;;;4986317;28;20291;-63
2022/11/01 10:00:57;;;;;;;5.60;3.55;;;;;;;;;;4978832;28;20256;-63
2022/11/01 10:03:24;;;;;;;4.38;3.28;;;;;;;;;;5000271;28;20318;-63
2022/11/01 10:05:57;;;;;;;4.95;3.17;;;;;;;;;;4975758;28;20879;-63
2022/11/01 10:08:43;;;;;;;6.38;3.50;;;;;;;;;;4980793;28;20345;-62
2022/11/01 10:11:28;;;;;;;4.15;3.10;;;;;;;;;;4979865;28;20242;-64
2022/11/01 10:13:59;;;;;;;4.78;3.13;;;;;;;;;;4982302;28;21052;-64
2022/11/01 10:16:42;;;;;;;3.80;2.50;;;;;;;;;;4979541;28;20286;-64
2022/11/01 10:19:14;;;;;;;2.95;2.63;;;;;;;;;;5001622;28;20326;-63
2022/11/01 10:21:44;;;;;;;4.00;2.55;;;;;;;;;;4977626;28;20298;-63
2022/11/01 10:24:17;;;;;;;4.22;2.63;;;;;;;;;;4980198;28;20566;-63
2022/11/01 10:26:46;;;;;;;2.90;2.22;;;;;;;;;;4980859;28;20266;-63
2022/11/01 10:29:36;;;;;;;2.58;2.33;;;;;;;;;;4974573;28;20226;-63
2022/11/01 10:32:04;;;;;;;3.45;2.17;;;;;;;;;;4993225;28;20207;-63
2022/11/01 10:34:33;;;;;;;3.03;2.20;;;;;;;;;;4984975;28;20222;-61
2022/11/01 10:37:18;;;;;;;3.85;2.38;;;;;;;;;;4978772;28;20621;-61
2022/11/01 10:39:54;;;;;;;4.10;2.55;;;;;;;;;;4982432;28;20271;-63
2022/11/01 10:42:29;;;;;;;3.72;2.20;;;;;;;;;;4975704;28;20669;-62
2022/11/01 10:44:59;;;;;;;2.50;2.30;;;;;;;;;;4971564;28;20199;-63
2022/11/01 10:47:28;;;;;;;3.58;2.20;;;;;;;;;;4975486;28;20335;-63
2022/11/01 10:50:17;;;;;;;2.33;2.13;;;;;;;;;;4975426;28;20224;-63
2022/11/01 10:53:02;;;;;;;3.28;2.40;;;;;;;;;;4977992;28;20215;-63
2022/11/01 10:55:33;;;;;;;6.22;2.60;;;;;;;;;;4976172;28;20787;-63
2022/11/01 10:58:20;;;;;;;3.85;2.30;;;;;;;;;;4979644;28;20239;-63
2022/11/01 11:00:48;;;;;;;2.95;2.35;;;;;;;;;;4994606;28;20971;-63
2022/11/01 11:03:22;;;;;;;4.07;2.38;;;;;;;;;;4981033;28;20230;-63
2022/11/01 11:05:52;;;;;;;4.35;2.60;;;;;;;;;;4979952;28;20206;-63
2022/11/01 11:08:21;;;;;;;2.50;2.30;;;;;;;;;;4976472;28;20211;-63
2022/11/01 11:10:48;;;;;;;2.80;2.60;;;;;;;;;;4999501;28;20807;-62
2022/11/01 11:13:22;;;;;;;4.70;2.47;;;;;;;;;;4972776;28;20298;-63
2022/11/01 11:15:51;;;;;;;3.80;2.28;;;;;;;;;;4994511;28;20220;-63
2022/11/01 11:18:29;;;;;;;3.30;2.30;;;;;;;;;;4978845;28;20243;-63
2022/11/01 11:21:11;;;;;;;3.80;2.35;;;;;;;;;;4972822;28;20276;-63
2022/11/01 11:23:45;;;;;;;4.10;3.13;;;;;;;;;;4986545;28;20223;-63
2022/11/01 11:26:15;;;;;;;2.47;2.28;;;;;;;;;;4987919;28;20211;-63
2022/11/01 11:28:46;;;;;;;3.25;2.30;;;;;;;;;;5000114;28;20196;-63
2022/11/01 11:31:24;;;;;;;2.83;2.28;;;;;;;;;;4980025;28;20295;-62
2022/11/01 11:33:59;;;;;;;3.20;2.15;;;;;;;;;;4999835;28;20258;-63
2022/11/01 11:36:29;;;;;;;2.67;2.47;;;;;;;;;;4973202;28;20677;-63
2022/11/01 11:38:57;;;;;;;2.60;2.40;;;;;;;;;;4977533;28;20333;-63
2022/11/01 11:41:29;;;;;;;4.53;2.20;;;;;;;;;;4997695;28;20289;-63
2022/11/01 11:43:57;;;;;;;2.10;1.92;;;;;;;;;;4990343;28;20357;-63
2022/11/01 11:46:25;;;;;;;3.25;2.40;;;;;;;;;;4977243;28;20688;-62
2022/11/01 11:48:59;;;;;;;2.67;2.35;;;;;;;;;;4976900;28;20207;-63
2022/11/01 11:51:28;;;;;;;3.33;2.08;;;;;;;;;;4970881;28;20222;-63
2022/11/01 11:54:14;;;;;;;1.73;1.42;;;;;;;;;;4977833;28;20207;-63
2022/11/01 11:56:43;;;;;;;3.25;1.25;;;;;;;;;;4969041;28;20662;-63
2022/11/01 11:59:31;;;;;;;2.65;1.20;;;;;;;;;;4967692;28;20241;-63
2022/11/01 12:02:00;;;;;;;1.20;1.10;;;;;;;;;;4962692;28;20200;-63
2022/11/01 12:04:37;;;;;;;1.65;1.02;;;;;;;;;;4984286;28;20262;-63
2022/11/01 12:07:10;;;;;;;0.95;0.95;;;;;;;;;;4980095;28;20263;-62
2022/11/01 12:09:45;;;;;;;1.58;0.85;;;;;;;;;;4968369;28;20302;-63
2022/11/01 12:12:26;;;;;;;0.88;0.80;;;;;;;;;;4995459;28;20302;-63
2022/11/01 12:14:55;;;;;;;1.58;1.00;;;;;;;;;;4967495;28;20211;-64
2022/11/01 12:17:30;;;;;;;1.08;0.80;;;;;;;;;;4979893;28;20214;-63
2022/11/01 12:20:00;;;;;;;1.27;0.80;;;;;;;;;;4980309;28;20232;-63
2022/11/01 12:22:30;;;;;;;1.50;0.80;;;;;;;;;;4992833;28;20257;-63
2022/11/01 12:24:58;;;;;;;2.85;0.90;;;;;;;;;;4995737;28;20310;-63
2022/11/01 12:27:27;;;;;;;3.22;0.90;;;;;;;;;;4966458;28;20212;-63
2022/11/01 12:30:08;;;;;;;0.90;0.80;;;;;;;;;;4973004;28;20231;-63
2022/11/01 12:32:51;;;;;;;2.95;2.45;;;;;;;;;;4960573;28;20253;-63
2022/11/01 12:35:24;;;;;;;3.42;1.63;;;;;;;;;;4972504;28;20673;-63
2022/11/01 12:37:51;;;;;;;2.38;1.50;;;;;;;;;;4965088;28;20208;-63
2022/11/01 12:40:23;;;;;;;2.75;1.08;;;;;;;;;;4950756;28;20327;-64
2022/11/01 12:42:54;;;;;;;1.80;0.90;;;;;;;;;;4966899;28;21714;-63
2022/11/01 12:45:25;;;;;;;1.02;0.70;;;;;;;;;;4972147;28;20234;-63
2022/11/01 12:47:55;;;;;;;3.20;1.20;;;;;;;;;;4981935;28;20552;-63
2022/11/01 12:50:33;;;;;;;2.20;1.00;;;;;;;;;;5001564;28;20232;-63
2022/11/01 12:53:04;;;;;;;3.05;1.00;;;;;;;;;;4974798;28;20208;-63
2022/11/01 12:55:39;;;;;;;1.38;0.88;;;;;;;;;;4981769;28;20204;-63
2022/11/01 12:58:12;;;;;;;1.45;1.15;;;;;;;;;;4969782;28;20203;-62
2022/11/01 13:00:42;;;;;;;2.65;1.20;;;;;;;;;;4964805;28;20226;-63
2022/11/01 13:03:15;;;;;;;1.45;1.10;;;;;;;;;;4957951;28;20235;-62
2022/11/01 13:05:46;;;;;;;2.90;1.10;;;;;;;;;;4952512;28;20212;-63
2022/11/01 13:08:24;;;;;;;2.97;1.20;;;;;;;;;;4955073;28;22296;-63
2022/11/01 13:10:52;;;;;;;1.60;0.80;;;;;;;;;;4964753;28;20877;-63
2022/11/01 13:13:21;;;;;;;2.72;1.45;;;;;;;;;;4966131;28;20573;-63
2022/11/01 13:15:56;;;;;;;3.47;1.70;;;;;;;;;;4961091;28;20235;-63
2022/11/01 13:18:23;;;;;;;39.67;22.38;;;;;;;;;;4956727;28;20695;-63
2022/11/01 13:21:07;;;;;;;6.82;4.18;;;;;;;;;;4980482;28;20237;-63
2022/11/01 13:23:52;;;;;;;6.45;4.32;;;;;;;;;;4984789;28;20215;-63
2022/11/01 13:26:26;;;;;;;12.02;7.90;;;;;;;;;;4984149;28;20294;-63
2022/11/01 13:28:53;;;;;;;12.88;9.20;;;;;;;;;;4987166;28;20753;-63
2022/11/01 13:31:39;;;;;;;3.42;2.08;;;;;;;;;;4961861;28;20222;-63
2022/11/01 13:34:26;;;;;;;5.68;3.17;;;;;;;;;;4957951;28;20245;-63
2022/11/01 13:37:26;;;;;;;7.65;5.28;;;;;;;;;;4984693;28;20220;-62
2022/11/01 13:40:01;;;;;;;10.77;7.70;;;;;;;;;;4940004;28;20318;-64
2022/11/01 13:42:31;;;;;;;4.50;3.20;;;;;;;;;;4966335;28;20207;-63
2022/11/01 13:45:25;;;;;;;2.33;1.75;;;;;;;;;;4983126;28;20238;-63
2022/11/01 13:48:01;;;;;;;3.10;2.25;;;;;;;;;;4959875;28;20204;-63
2022/11/01 13:50:32;;;;;;;3.80;2.95;;;;;;;;;;4980626;28;20236;-62
2022/11/01 13:53:06;;;;;;;2.72;1.75;;;;;;;;;;4967127;28;20222;-64
2022/11/01 13:55:37;;;;;;;4.32;2.33;;;;;;;;;;4970074;28;20211;-63
2022/11/01 13:58:05;;;;;;;10.18;5.03;;;;;;;;;;4965990;28;20208;-64
2022/11/01 14:00:43;;;;;;;14.75;7.13;;;;;;;;;;4972223;28;20223;-63
2022/11/01 14:03:16;;;;;;;2.38;1.52;;;;;;;;;;4965629;28;20207;-62
2022/11/01 14:05:45;;;;;;;1.67;1.00;;;;;;;;;;4970457;28;20204;-63
2022/11/01 14:08:14;;;;;;;5.68;4.32;;;;;;;;;;4954215;28;20262;-63
2022/11/01 14:10:45;;;;;;;3.28;2.05;;;;;;;;;;4955534;28;20230;-63
2022/11/01 14:13:17;;;;;;;3.22;1.60;;;;;;;;;;4981513;28;20291;-63
2022/11/01 14:15:53;;;;;;;3.15;1.63;;;;;;;;;;4980123;28;20899;-63
2022/11/01 14:18:21;;;;;;;7.93;3.90;;;;;;;;;;4984912;28;20315;-63
2022/11/01 14:20:55;;;;;;;4.00;2.63;;;;;;;;;;4971884;28;20686;-64
2022/11/01 14:23:26;;;;;;;2.40;1.40;;;;;;;;;;4980573;28;20211;-62
2022/11/01 14:26:12;;;;;;;3.03;1.70;;;;;;;;;;4965255;28;20235;-62
2022/11/01 14:28:43;;;;;;;7.35;3.75;;;;;;;;;;4978365;28;20227;-62
2022/11/01 14:31:12;;;;;;;5.60;3.17;;;;;;;;;;5002444;28;20234;-66
2022/11/01 14:33:40;;;;;;;11.02;4.25;;;;;;;;;;4974552;28;20372;-62
2022/11/01 14:36:11;;;;;;;5.57;2.80;;;;;;;;;;4965809;28;20318;-62
2022/11/01 14:38:46;;;;;;;8.27;4.03;;;;;;;;;;4974501;28;20212;-63
2022/11/01 14:41:14;;;;;;;4.72;2.85;;;;;;;;;;4972813;28;20226;-63
2022/11/01 14:43:50;;;;;;;3.00;1.85;;;;;;;;;;4984970;28;20227;-63
2022/11/01 14:46:20;;;;;;;5.38;2.75;;;;;;;;;;4977119;28;20638;-63
2022/11/01 14:49:15;;;;;;;3.75;3.30;;;;;;;;;;4952592;28;20725;-63
2022/11/01 14:51:48;;;;;;;3.58;1.30;;;;;;;;;;4985410;28;20206;-63
2022/11/01 14:54:35;;;;;;;5.28;3.17;;;;;;;;;;4975192;28;20344;-63
2022/11/01 14:57:18;;;;;;;4.75;2.53;;;;;;;;;;4977688;28;20299;-63
2022/11/01 14:59:46;;;;;;;12.23;4.50;;;;;;;;;;4968542;28;20227;-63
2022/11/01 15:02:13;;;;;;;9.15;4.85;;;;;;;;;;4978500;28;20637;-64
2022/11/01 15:04:45;;;;;;;4.13;2.40;;;;;;;;;;4956394;28;20266;-63
2022/11/01 15:07:23;;;;;;;5.03;1.50;;;;;;;;;;4961818;28;20200;-63